Scott Noel

Log

Date Workout Score Ave Comments Action
04/30/26 25:02 5,017m 2:29.7 View workout
04/24/26 v4:00/2:00r...9 4,091m 2:11.9 View workout
04/22/26 5000m 25:09.7 2:30.9 View workout
04/17/26 14:17 3,018m 2:22.1 View workout
04/14/26 v4:00/2:00r...9 4,032m 2:13.9 View workout
04/10/26 5000m 24:53.8 2:29.3 View workout
04/08/26 v4:00/2:00r...9 3,952m 2:16.6 View workout
03/27/26 5000m 24:50.7 2:29.0 View workout
03/16/26 v1:00/1:00r...10 2,368m 2:06.6 View workout
03/10/26 30:43 6,016m 2:33.1 View workout
03/02/26 5000m 24:03.5 2:24.3 View workout
02/24/26 24:41 5,020m 2:27.5 View workout
02/17/26 5000m 24:24.1 2:26.4 View workout
02/11/26 24:31 5,014m 2:26.7 View workout
02/04/26 5000m 24:04.3 2:24.4 View workout
01/28/26 v4:00/2:00r...9 4,061m 2:12.9 View workout
01/20/26 5000m 23:54.9 2:23.4 View workout
01/13/26 5000m 23:51.8 2:23.1 View workout
01/09/26 5000m 23:53.1 2:23.3 View workout
01/03/26 5000m 24:31.7 2:27.1 View workout
12/29/25 5000m 24:16.8 2:25.6 View workout
12/16/25 5000m 24:10.8 2:25.0 View workout
12/12/25 5000m 24:07.5 2:24.7 View workout
12/09/25 5000m 24:16.3 2:25.6

easy pace, effort on keeping heart rate down.

View workout
12/05/25 v4:00/2:00r...9 4,072m 2:12.6 View workout